sensor_id;sensor_type;location;lat;lon;timestamp;P1;durP1;ratioP1;P2;durP2;ratioP2
4307;SDS011;2167;53.448;9.984;2023-04-15T00:01:23;5.27;;;2.57;;
4307;SDS011;2167;53.448;9.984;2023-04-15T00:03:54;4.80;;;3.53;;
4307;SDS011;2167;53.448;9.984;2023-04-15T00:06:21;4.73;;;3.10;;
4307;SDS011;2167;53.448;9.984;2023-04-15T00:08:50;4.50;;;3.20;;
4307;SDS011;2167;53.448;9.984;2023-04-15T00:11:16;2.90;;;2.50;;
4307;SDS011;2167;53.448;9.984;2023-04-15T00:13:42;4.37;;;2.40;;
4307;SDS011;2167;53.448;9.984;2023-04-15T00:16:08;10.00;;;3.63;;
4307;SDS011;2167;53.448;9.984;2023-04-15T00:18:34;5.03;;;2.97;;
4307;SDS011;2167;53.448;9.984;2023-04-15T00:21:00;4.00;;;2.90;;
4307;SDS011;2167;53.448;9.984;2023-04-15T00:23:26;5.43;;;3.07;;
4307;SDS011;2167;53.448;9.984;2023-04-15T00:25:53;3.07;;;2.77;;
4307;SDS011;2167;53.448;9.984;2023-04-15T00:28:19;5.10;;;2.67;;
4307;SDS011;2167;53.448;9.984;2023-04-15T00:30:44;4.17;;;3.53;;
4307;SDS011;2167;53.448;9.984;2023-04-15T00:33:11;4.53;;;2.83;;
4307;SDS011;2167;53.448;9.984;2023-04-15T00:35:38;6.40;;;2.93;;
4307;SDS011;2167;53.448;9.984;2023-04-15T00:38:04;5.30;;;2.47;;
4307;SDS011;2167;53.448;9.984;2023-04-15T00:40:34;4.13;;;2.70;;
4307;SDS011;2167;53.448;9.984;2023-04-15T00:43:00;6.10;;;2.90;;
4307;SDS011;2167;53.448;9.984;2023-04-15T00:45:26;3.60;;;2.93;;
4307;SDS011;2167;53.448;9.984;2023-04-15T00:47:53;4.73;;;3.13;;
4307;SDS011;2167;53.448;9.984;2023-04-15T00:50:18;4.97;;;3.33;;
4307;SDS011;2167;53.448;9.984;2023-04-15T00:52:44;4.80;;;2.30;;
4307;SDS011;2167;53.448;9.984;2023-04-15T00:55:10;3.93;;;3.10;;
4307;SDS011;2167;53.448;9.984;2023-04-15T00:57:35;5.10;;;2.83;;
4307;SDS011;2167;53.448;9.984;2023-04-15T01:00:02;3.90;;;3.20;;
4307;SDS011;2167;53.448;9.984;2023-04-15T01:02:30;5.20;;;3.20;;
4307;SDS011;2167;53.448;9.984;2023-04-15T01:04:56;3.57;;;2.60;;
4307;SDS011;2167;53.448;9.984;2023-04-15T01:07:22;4.17;;;2.93;;
4307;SDS011;2167;53.448;9.984;2023-04-15T01:09:47;5.27;;;3.13;;
4307;SDS011;2167;53.448;9.984;2023-04-15T01:12:13;3.23;;;2.70;;
4307;SDS011;2167;53.448;9.984;2023-04-15T01:14:40;5.03;;;3.00;;
4307;SDS011;2167;53.448;9.984;2023-04-15T01:17:06;3.77;;;2.87;;
4307;SDS011;2167;53.448;9.984;2023-04-15T01:19:31;5.17;;;2.87;;
4307;SDS011;2167;53.448;9.984;2023-04-15T01:21:58;3.73;;;3.13;;
4307;SDS011;2167;53.448;9.984;2023-04-15T01:24:23;5.67;;;2.80;;
4307;SDS011;2167;53.448;9.984;2023-04-15T01:26:52;3.40;;;2.47;;
4307;SDS011;2167;53.448;9.984;2023-04-15T01:29:18;3.10;;;2.33;;
4307;SDS011;2167;53.448;9.984;2023-04-15T01:31:54;4.07;;;2.80;;
4307;SDS011;2167;53.448;9.984;2023-04-15T01:34:20;2.20;;;2.00;;
4307;SDS011;2167;53.448;9.984;2023-04-15T01:36:47;3.73;;;2.17;;
4307;SDS011;2167;53.448;9.984;2023-04-15T01:39:13;4.70;;;2.70;;
4307;SDS011;2167;53.448;9.984;2023-04-15T01:41:38;3.90;;;2.20;;
4307;SDS011;2167;53.448;9.984;2023-04-15T01:44:06;3.47;;;2.10;;
4307;SDS011;2167;53.448;9.984;2023-04-15T01:46:32;3.23;;;2.53;;
4307;SDS011;2167;53.448;9.984;2023-04-15T01:48:57;2.33;;;2.13;;
4307;SDS011;2167;53.448;9.984;2023-04-15T01:51:23;3.33;;;2.23;;
4307;SDS011;2167;53.448;9.984;2023-04-15T01:53:48;4.80;;;2.87;;
4307;SDS011;2167;53.448;9.984;2023-04-15T01:56:14;3.90;;;2.30;;
4307;SDS011;2167;53.448;9.984;2023-04-15T01:58:40;2.80;;;2.20;;
4307;SDS011;2167;53.448;9.984;2023-04-15T02:01:06;5.57;;;2.47;;
4307;SDS011;2167;53.448;9.984;2023-04-15T02:03:34;6.27;;;3.53;;
4307;SDS011;2167;53.448;9.984;2023-04-15T02:06:01;5.20;;;2.40;;
4307;SDS011;2167;53.448;9.984;2023-04-15T02:08:26;4.43;;;3.23;;
4307;SDS011;2167;53.448;9.984;2023-04-15T02:10:52;3.33;;;3.03;;
4307;SDS011;2167;53.448;9.984;2023-04-15T02:13:18;4.00;;;2.63;;
4307;SDS011;2167;53.448;9.984;2023-04-15T02:15:47;4.80;;;2.60;;
4307;SDS011;2167;53.448;9.984;2023-04-15T02:18:17;4.70;;;3.07;;
4307;SDS011;2167;53.448;9.984;2023-04-15T02:20:42;8.53;;;4.13;;
4307;SDS011;2167;53.448;9.984;2023-04-15T02:23:08;7.17;;;3.90;;
4307;SDS011;2167;53.448;9.984;2023-04-15T02:25:36;5.40;;;2.97;;
4307;SDS011;2167;53.448;9.984;2023-04-15T02:28:03;5.00;;;3.20;;
4307;SDS011;2167;53.448;9.984;2023-04-15T02:30:30;6.70;;;4.20;;
4307;SDS011;2167;53.448;9.984;2023-04-15T02:32:56;4.00;;;2.57;;
4307;SDS011;2167;53.448;9.984;2023-04-15T02:35:22;5.67;;;3.47;;
4307;SDS011;2167;53.448;9.984;2023-04-15T02:37:49;5.63;;;3.63;;
4307;SDS011;2167;53.448;9.984;2023-04-15T02:40:15;4.97;;;3.63;;
4307;SDS011;2167;53.448;9.984;2023-04-15T02:42:43;6.23;;;3.17;;
4307;SDS011;2167;53.448;9.984;2023-04-15T02:45:09;3.93;;;3.07;;
4307;SDS011;2167;53.448;9.984;2023-04-15T02:47:36;6.57;;;3.80;;
4307;SDS011;2167;53.448;9.984;2023-04-15T02:50:10;7.10;;;4.20;;
4307;SDS011;2167;53.448;9.984;2023-04-15T02:52:40;5.53;;;3.50;;
4307;SDS011;2167;53.448;9.984;2023-04-15T02:55:06;6.07;;;3.60;;
4307;SDS011;2167;53.448;9.984;2023-04-15T02:57:33;5.70;;;4.53;;
4307;SDS011;2167;53.448;9.984;2023-04-15T03:00:01;5.80;;;3.80;;
4307;SDS011;2167;53.448;9.984;2023-04-15T03:02:38;4.00;;;3.70;;
4307;SDS011;2167;53.448;9.984;2023-04-15T03:05:06;9.80;;;5.20;;
4307;SDS011;2167;53.448;9.984;2023-04-15T03:07:35;8.80;;;4.50;;
4307;SDS011;2167;53.448;9.984;2023-04-15T03:10:01;8.57;;;4.27;;
4307;SDS011;2167;53.448;9.984;2023-04-15T03:12:27;7.00;;;4.60;;
4307;SDS011;2167;53.448;9.984;2023-04-15T03:14:55;7.20;;;4.30;;
4307;SDS011;2167;53.448;9.984;2023-04-15T03:17:21;11.83;;;4.93;;
4307;SDS011;2167;53.448;9.984;2023-04-15T03:19:50;7.93;;;4.50;;
4307;SDS011;2167;53.448;9.984;2023-04-15T03:22:21;10.30;;;5.27;;
4307;SDS011;2167;53.448;9.984;2023-04-15T03:24:47;10.27;;;5.17;;
4307;SDS011;2167;53.448;9.984;2023-04-15T03:27:12;6.40;;;4.13;;
4307;SDS011;2167;53.448;9.984;2023-04-15T03:29:38;11.23;;;5.50;;
4307;SDS011;2167;53.448;9.984;2023-04-15T03:32:03;7.30;;;4.70;;
4307;SDS011;2167;53.448;9.984;2023-04-15T03:34:29;10.07;;;4.63;;
4307;SDS011;2167;53.448;9.984;2023-04-15T03:36:55;8.20;;;5.20;;
4307;SDS011;2167;53.448;9.984;2023-04-15T03:39:21;8.10;;;5.17;;
4307;SDS011;2167;53.448;9.984;2023-04-15T03:41:46;6.53;;;4.63;;
4307;SDS011;2167;53.448;9.984;2023-04-15T03:44:12;8.57;;;4.97;;
4307;SDS011;2167;53.448;9.984;2023-04-15T03:53:18;11.57;;;6.00;;
4307;SDS011;2167;53.448;9.984;2023-04-15T03:55:58;11.60;;;4.70;;
4307;SDS011;2167;53.448;9.984;2023-04-15T03:58:26;12.10;;;5.37;;
4307;SDS011;2167;53.448;9.984;2023-04-15T04:00:54;9.90;;;5.30;;
4307;SDS011;2167;53.448;9.984;2023-04-15T04:03:41;10.27;;;4.57;;
4307;SDS011;2167;53.448;9.984;2023-04-15T04:06:37;8.73;;;4.13;;
4307;SDS011;2167;53.448;9.984;2023-04-15T04:15:56;7.50;;;4.73;;
4307;SDS011;2167;53.448;9.984;2023-04-15T04:18:24;11.50;;;5.70;;
4307;SDS011;2167;53.448;9.984;2023-04-15T04:20:52;10.00;;;6.07;;
4307;SDS011;2167;53.448;9.984;2023-04-15T04:23:19;8.33;;;5.70;;
4307;SDS011;2167;53.448;9.984;2023-04-15T04:25:45;8.40;;;5.10;;
4307;SDS011;2167;53.448;9.984;2023-04-15T04:28:10;7.63;;;4.90;;
4307;SDS011;2167;53.448;9.984;2023-04-15T04:30:39;11.57;;;4.87;;
4307;SDS011;2167;53.448;9.984;2023-04-15T04:33:20;8.10;;;5.00;;
4307;SDS011;2167;53.448;9.984;2023-04-15T04:36:04;8.60;;;5.23;;
4307;SDS011;2167;53.448;9.984;2023-04-15T04:42:19;7.73;;;5.30;;
4307;SDS011;2167;53.448;9.984;2023-04-15T04:44:50;10.90;;;4.87;;
4307;SDS011;2167;53.448;9.984;2023-04-15T04:47:24;8.10;;;4.53;;
4307;SDS011;2167;53.448;9.984;2023-04-15T04:49:50;7.20;;;4.53;;
4307;SDS011;2167;53.448;9.984;2023-04-15T04:52:34;10.73;;;4.83;;
4307;SDS011;2167;53.448;9.984;2023-04-15T04:55:00;9.47;;;5.00;;
4307;SDS011;2167;53.448;9.984;2023-04-15T04:57:25;11.30;;;6.13;;
4307;SDS011;2167;53.448;9.984;2023-04-15T05:03:13;12.37;;;6.80;;
4307;SDS011;2167;53.448;9.984;2023-04-15T05:06:02;14.17;;;5.10;;
4307;SDS011;2167;53.448;9.984;2023-04-15T05:08:45;10.80;;;4.93;;
4307;SDS011;2167;53.448;9.984;2023-04-15T05:31:07;12.13;;;6.90;;
4307;SDS011;2167;53.448;9.984;2023-04-15T05:37:33;12.40;;;7.23;;
4307;SDS011;2167;53.448;9.984;2023-04-15T05:40:31;25.43;;;9.40;;
4307;SDS011;2167;53.448;9.984;2023-04-15T05:43:01;15.60;;;8.50;;
4307;SDS011;2167;53.448;9.984;2023-04-15T05:45:38;21.23;;;9.57;;
4307;SDS011;2167;53.448;9.984;2023-04-15T05:48:07;16.57;;;8.50;;
4307;SDS011;2167;53.448;9.984;2023-04-15T05:50:35;18.40;;;7.80;;
4307;SDS011;2167;53.448;9.984;2023-04-15T05:53:01;22.90;;;10.37;;
4307;SDS011;2167;53.448;9.984;2023-04-15T05:55:38;18.63;;;10.90;;
4307;SDS011;2167;53.448;9.984;2023-04-15T05:58:41;16.67;;;9.23;;
4307;SDS011;2167;53.448;9.984;2023-04-15T06:04:30;24.60;;;9.27;;
4307;SDS011;2167;53.448;9.984;2023-04-15T06:06:56;24.87;;;9.30;;
4307;SDS011;2167;53.448;9.984;2023-04-15T06:09:22;20.07;;;10.23;;
4307;SDS011;2167;53.448;9.984;2023-04-15T06:11:47;22.93;;;10.80;;
4307;SDS011;2167;53.448;9.984;2023-04-15T06:17:04;21.07;;;11.37;;
4307;SDS011;2167;53.448;9.984;2023-04-15T06:19:42;28.23;;;11.63;;
4307;SDS011;2167;53.448;9.984;2023-04-15T06:22:11;26.97;;;10.53;;
4307;SDS011;2167;53.448;9.984;2023-04-15T06:24:36;28.43;;;11.67;;
4307;SDS011;2167;53.448;9.984;2023-04-15T06:27:02;24.93;;;10.50;;
4307;SDS011;2167;53.448;9.984;2023-04-15T06:29:30;23.27;;;12.10;;
4307;SDS011;2167;53.448;9.984;2023-04-15T06:32:02;23.50;;;12.20;;
4307;SDS011;2167;53.448;9.984;2023-04-15T06:34:34;21.50;;;11.13;;
4307;SDS011;2167;53.448;9.984;2023-04-15T06:37:03;25.90;;;13.87;;
4307;SDS011;2167;53.448;9.984;2023-04-15T06:39:29;22.20;;;10.73;;
4307;SDS011;2167;53.448;9.984;2023-04-15T06:41:56;26.83;;;11.90;;
4307;SDS011;2167;53.448;9.984;2023-04-15T06:44:25;22.57;;;11.83;;
4307;SDS011;2167;53.448;9.984;2023-04-15T06:50:02;30.27;;;13.50;;
4307;SDS011;2167;53.448;9.984;2023-04-15T06:56:31;27.13;;;12.63;;
4307;SDS011;2167;53.448;9.984;2023-04-15T06:59:08;25.03;;;11.53;;
4307;SDS011;2167;53.448;9.984;2023-04-15T07:01:45;28.60;;;13.57;;
4307;SDS011;2167;53.448;9.984;2023-04-15T07:07:47;23.30;;;12.43;;
4307;SDS011;2167;53.448;9.984;2023-04-15T07:17:25;33.13;;;14.83;;
4307;SDS011;2167;53.448;9.984;2023-04-15T07:19:51;25.40;;;13.77;;
4307;SDS011;2167;53.448;9.984;2023-04-15T07:25:49;28.63;;;14.13;;
4307;SDS011;2167;53.448;9.984;2023-04-15T07:41:15;27.70;;;13.37;;
4307;SDS011;2167;53.448;9.984;2023-04-15T07:43:45;31.20;;;14.80;;
4307;SDS011;2167;53.448;9.984;2023-04-15T07:50:23;32.83;;;15.70;;
4307;SDS011;2167;53.448;9.984;2023-04-15T07:53:08;33.90;;;13.67;;
4307;SDS011;2167;53.448;9.984;2023-04-15T07:56:07;26.33;;;14.87;;
4307;SDS011;2167;53.448;9.984;2023-04-15T07:58:37;28.80;;;13.83;;
4307;SDS011;2167;53.448;9.984;2023-04-15T08:08:33;42.07;;;17.80;;
4307;SDS011;2167;53.448;9.984;2023-04-15T08:11:00;28.77;;;15.07;;
4307;SDS011;2167;53.448;9.984;2023-04-15T08:13:26;35.47;;;15.47;;
4307;SDS011;2167;53.448;9.984;2023-04-15T08:16:16;32.30;;;17.73;;
4307;SDS011;2167;53.448;9.984;2023-04-15T08:18:44;30.93;;;14.00;;
4307;SDS011;2167;53.448;9.984;2023-04-15T08:21:12;34.03;;;16.77;;
4307;SDS011;2167;53.448;9.984;2023-04-15T08:24:14;25.90;;;14.30;;
4307;SDS011;2167;53.448;9.984;2023-04-15T08:27:19;32.00;;;15.40;;
4307;SDS011;2167;53.448;9.984;2023-04-15T08:29:54;39.97;;;17.27;;
4307;SDS011;2167;53.448;9.984;2023-04-15T08:32:19;37.80;;;15.40;;
4307;SDS011;2167;53.448;9.984;2023-04-15T08:34:48;32.30;;;16.17;;
4307;SDS011;2167;53.448;9.984;2023-04-15T08:38:02;30.13;;;15.93;;
4307;SDS011;2167;53.448;9.984;2023-04-15T08:40:29;36.03;;;16.10;;
4307;SDS011;2167;53.448;9.984;2023-04-15T08:43:07;27.27;;;13.63;;
4307;SDS011;2167;53.448;9.984;2023-04-15T08:45:36;35.03;;;17.50;;
4307;SDS011;2167;53.448;9.984;2023-04-15T08:48:03;35.77;;;16.17;;
4307;SDS011;2167;53.448;9.984;2023-04-15T08:50:31;35.50;;;16.37;;
4307;SDS011;2167;53.448;9.984;2023-04-15T08:53:00;39.10;;;16.73;;
4307;SDS011;2167;53.448;9.984;2023-04-15T08:55:27;44.20;;;16.13;;
4307;SDS011;2167;53.448;9.984;2023-04-15T09:01:56;29.47;;;13.90;;
4307;SDS011;2167;53.448;9.984;2023-04-15T09:15:08;31.40;;;14.40;;
4307;SDS011;2167;53.448;9.984;2023-04-15T10:11:26;36.87;;;17.23;;
4307;SDS011;2167;53.448;9.984;2023-04-15T10:23:46;35.10;;;16.10;;
4307;SDS011;2167;53.448;9.984;2023-04-15T10:26:13;34.30;;;16.43;;
4307;SDS011;2167;53.448;9.984;2023-04-15T10:28:43;40.83;;;16.13;;
4307;SDS011;2167;53.448;9.984;2023-04-15T10:31:11;44.90;;;17.30;;
4307;SDS011;2167;53.448;9.984;2023-04-15T10:33:42;32.13;;;16.47;;
4307;SDS011;2167;53.448;9.984;2023-04-15T10:36:10;38.17;;;18.30;;
4307;SDS011;2167;53.448;9.984;2023-04-15T10:41:25;42.33;;;15.57;;
4307;SDS011;2167;53.448;9.984;2023-04-15T10:43:54;39.93;;;16.93;;
4307;SDS011;2167;53.448;9.984;2023-04-15T10:51:35;31.67;;;15.47;;
4307;SDS011;2167;53.448;9.984;2023-04-15T10:54:08;35.33;;;16.70;;
4307;SDS011;2167;53.448;9.984;2023-04-15T10:56:40;29.47;;;16.13;;
4307;SDS011;2167;53.448;9.984;2023-04-15T10:59:07;29.50;;;15.00;;
4307;SDS011;2167;53.448;9.984;2023-04-15T11:01:49;31.73;;;16.17;;
4307;SDS011;2167;53.448;9.984;2023-04-15T11:07:39;36.97;;;14.70;;
4307;SDS011;2167;53.448;9.984;2023-04-15T11:12:44;24.00;;;13.60;;
4307;SDS011;2167;53.448;9.984;2023-04-15T11:18:22;28.70;;;14.60;;
4307;SDS011;2167;53.448;9.984;2023-04-15T11:20:50;24.20;;;14.27;;
4307;SDS011;2167;53.448;9.984;2023-04-15T11:23:54;20.17;;;10.60;;
4307;SDS011;2167;53.448;9.984;2023-04-15T11:26:13;19.97;;;11.17;;
4307;SDS011;2167;53.448;9.984;2023-04-15T11:28:40;18.37;;;10.70;;
4307;SDS011;2167;53.448;9.984;2023-04-15T11:31:12;16.30;;;9.97;;
4307;SDS011;2167;53.448;9.984;2023-04-15T11:34:01;14.70;;;9.37;;
4307;SDS011;2167;53.448;9.984;2023-04-15T11:36:27;14.70;;;9.77;;
4307;SDS011;2167;53.448;9.984;2023-04-15T11:38:56;14.77;;;9.67;;
4307;SDS011;2167;53.448;9.984;2023-04-15T11:41:23;15.67;;;9.30;;
4307;SDS011;2167;53.448;9.984;2023-04-15T11:43:49;18.00;;;11.37;;
4307;SDS011;2167;53.448;9.984;2023-04-15T11:46:16;22.80;;;9.20;;
4307;SDS011;2167;53.448;9.984;2023-04-15T11:48:42;18.33;;;9.70;;
4307;SDS011;2167;53.448;9.984;2023-04-15T11:51:09;17.53;;;10.20;;
4307;SDS011;2167;53.448;9.984;2023-04-15T11:56:21;20.30;;;10.20;;
4307;SDS011;2167;53.448;9.984;2023-04-15T11:58:53;22.60;;;9.33;;
4307;SDS011;2167;53.448;9.984;2023-04-15T12:01:30;15.50;;;9.67;;
4307;SDS011;2167;53.448;9.984;2023-04-15T12:04:00;15.63;;;9.57;;
4307;SDS011;2167;53.448;9.984;2023-04-15T12:06:30;18.60;;;9.57;;
4307;SDS011;2167;53.448;9.984;2023-04-15T12:09:09;14.10;;;9.47;;
4307;SDS011;2167;53.448;9.984;2023-04-15T12:11:44;14.43;;;9.63;;
4307;SDS011;2167;53.448;9.984;2023-04-15T12:14:23;15.77;;;9.23;;
4307;SDS011;2167;53.448;9.984;2023-04-15T12:16:51;17.73;;;8.60;;
4307;SDS011;2167;53.448;9.984;2023-04-15T12:19:31;12.30;;;7.83;;
4307;SDS011;2167;53.448;9.984;2023-04-15T12:22:04;15.77;;;9.80;;
4307;SDS011;2167;53.448;9.984;2023-04-15T12:24:33;17.53;;;10.93;;
4307;SDS011;2167;53.448;9.984;2023-04-15T12:27:01;14.40;;;9.37;;
4307;SDS011;2167;53.448;9.984;2023-04-15T12:29:28;12.60;;;8.87;;
4307;SDS011;2167;53.448;9.984;2023-04-15T12:31:55;16.23;;;9.27;;
4307;SDS011;2167;53.448;9.984;2023-04-15T12:34:32;11.33;;;7.10;;
4307;SDS011;2167;53.448;9.984;2023-04-15T12:37:00;13.27;;;8.53;;
4307;SDS011;2167;53.448;9.984;2023-04-15T12:39:29;13.10;;;8.00;;
4307;SDS011;2167;53.448;9.984;2023-04-15T12:42:02;10.70;;;6.80;;
4307;SDS011;2167;53.448;9.984;2023-04-15T12:44:29;10.60;;;8.43;;
4307;SDS011;2167;53.448;9.984;2023-04-15T12:46:55;12.10;;;7.13;;
4307;SDS011;2167;53.448;9.984;2023-04-15T12:49:22;10.83;;;7.20;;
4307;SDS011;2167;53.448;9.984;2023-04-15T12:51:49;10.47;;;8.13;;
4307;SDS011;2167;53.448;9.984;2023-04-15T12:54:19;13.73;;;8.30;;
4307;SDS011;2167;53.448;9.984;2023-04-15T12:56:46;13.00;;;8.50;;
4307;SDS011;2167;53.448;9.984;2023-04-15T12:59:13;13.17;;;8.43;;
4307;SDS011;2167;53.448;9.984;2023-04-15T13:01:39;11.43;;;7.57;;
4307;SDS011;2167;53.448;9.984;2023-04-15T13:04:05;12.50;;;7.57;;
4307;SDS011;2167;53.448;9.984;2023-04-15T13:06:31;9.90;;;7.33;;
4307;SDS011;2167;53.448;9.984;2023-04-15T13:08:59;8.77;;;6.07;;
4307;SDS011;2167;53.448;9.984;2023-04-15T13:11:26;10.30;;;7.80;;
4307;SDS011;2167;53.448;9.984;2023-04-15T13:13:54;12.00;;;7.50;;
4307;SDS011;2167;53.448;9.984;2023-04-15T13:16:21;11.40;;;8.00;;
4307;SDS011;2167;53.448;9.984;2023-04-15T13:18:47;10.30;;;7.17;;
4307;SDS011;2167;53.448;9.984;2023-04-15T13:21:13;10.47;;;6.63;;
4307;SDS011;2167;53.448;9.984;2023-04-15T13:23:42;10.93;;;7.37;;
4307;SDS011;2167;53.448;9.984;2023-04-15T13:26:08;11.77;;;7.90;;
4307;SDS011;2167;53.448;9.984;2023-04-15T13:28:34;12.13;;;6.80;;
4307;SDS011;2167;53.448;9.984;2023-04-15T13:31:00;10.47;;;7.50;;
4307;SDS011;2167;53.448;9.984;2023-04-15T13:33:26;14.30;;;8.37;;
4307;SDS011;2167;53.448;9.984;2023-04-15T13:35:52;10.07;;;7.40;;
4307;SDS011;2167;53.448;9.984;2023-04-15T13:38:17;14.60;;;8.13;;
4307;SDS011;2167;53.448;9.984;2023-04-15T13:40:43;10.90;;;7.10;;
4307;SDS011;2167;53.448;9.984;2023-04-15T13:43:09;9.47;;;7.27;;
4307;SDS011;2167;53.448;9.984;2023-04-15T13:45:35;13.87;;;8.87;;
4307;SDS011;2167;53.448;9.984;2023-04-15T13:48:00;12.97;;;8.73;;
4307;SDS011;2167;53.448;9.984;2023-04-15T13:50:26;12.30;;;9.20;;
4307;SDS011;2167;53.448;9.984;2023-04-15T13:52:52;12.97;;;7.90;;
4307;SDS011;2167;53.448;9.984;2023-04-15T13:55:18;10.50;;;7.30;;
4307;SDS011;2167;53.448;9.984;2023-04-15T13:57:43;11.10;;;7.90;;
4307;SDS011;2167;53.448;9.984;2023-04-15T14:00:10;13.93;;;7.80;;
4307;SDS011;2167;53.448;9.984;2023-04-15T14:02:36;9.37;;;7.77;;
4307;SDS011;2167;53.448;9.984;2023-04-15T14:05:02;11.27;;;7.83;;
4307;SDS011;2167;53.448;9.984;2023-04-15T14:07:30;11.77;;;8.30;;
4307;SDS011;2167;53.448;9.984;2023-04-15T14:09:55;11.10;;;7.80;;
4307;SDS011;2167;53.448;9.984;2023-04-15T14:12:21;10.60;;;6.60;;
4307;SDS011;2167;53.448;9.984;2023-04-15T14:14:47;12.20;;;8.67;;
4307;SDS011;2167;53.448;9.984;2023-04-15T14:17:12;11.00;;;7.83;;
4307;SDS011;2167;53.448;9.984;2023-04-15T14:19:38;8.80;;;7.57;;
4307;SDS011;2167;53.448;9.984;2023-04-15T14:22:04;8.60;;;7.13;;
4307;SDS011;2167;53.448;9.984;2023-04-15T14:24:30;12.73;;;7.50;;
4307;SDS011;2167;53.448;9.984;2023-04-15T14:26:57;7.70;;;5.77;;
4307;SDS011;2167;53.448;9.984;2023-04-15T14:29:23;9.50;;;7.47;;
4307;SDS011;2167;53.448;9.984;2023-04-15T14:31:48;9.30;;;7.40;;
4307;SDS011;2167;53.448;9.984;2023-04-15T14:34:14;10.87;;;5.90;;
4307;SDS011;2167;53.448;9.984;2023-04-15T14:36:40;10.20;;;6.57;;
4307;SDS011;2167;53.448;9.984;2023-04-15T14:39:06;7.87;;;6.30;;
4307;SDS011;2167;53.448;9.984;2023-04-15T14:41:32;12.20;;;6.70;;
4307;SDS011;2167;53.448;9.984;2023-04-15T14:44:02;10.27;;;6.67;;
4307;SDS011;2167;53.448;9.984;2023-04-15T14:46:28;9.80;;;6.10;;
4307;SDS011;2167;53.448;9.984;2023-04-15T14:48:54;10.47;;;6.13;;
4307;SDS011;2167;53.448;9.984;2023-04-15T14:51:20;8.93;;;5.83;;
4307;SDS011;2167;53.448;9.984;2023-04-15T14:53:46;9.70;;;6.27;;
4307;SDS011;2167;53.448;9.984;2023-04-15T14:56:12;8.70;;;6.20;;
4307;SDS011;2167;53.448;9.984;2023-04-15T14:58:38;11.63;;;6.23;;
4307;SDS011;2167;53.448;9.984;2023-04-15T15:01:03;10.27;;;7.60;;
4307;SDS011;2167;53.448;9.984;2023-04-15T15:03:29;8.50;;;5.67;;
4307;SDS011;2167;53.448;9.984;2023-04-15T15:05:56;11.00;;;7.03;;
4307;SDS011;2167;53.448;9.984;2023-04-15T15:08:22;10.13;;;6.20;;
4307;SDS011;2167;53.448;9.984;2023-04-15T15:10:48;7.97;;;6.37;;
4307;SDS011;2167;53.448;9.984;2023-04-15T15:13:13;7.27;;;6.03;;
4307;SDS011;2167;53.448;9.984;2023-04-15T15:15:39;12.40;;;7.20;;
4307;SDS011;2167;53.448;9.984;2023-04-15T15:18:05;9.90;;;7.17;;
4307;SDS011;2167;53.448;9.984;2023-04-15T15:20:31;9.10;;;7.17;;
4307;SDS011;2167;53.448;9.984;2023-04-15T15:22:58;8.80;;;5.80;;
4307;SDS011;2167;53.448;9.984;2023-04-15T15:25:23;7.70;;;5.80;;
4307;SDS011;2167;53.448;9.984;2023-04-15T15:27:51;8.47;;;5.63;;
4307;SDS011;2167;53.448;9.984;2023-04-15T15:30:16;7.10;;;6.00;;
4307;SDS011;2167;53.448;9.984;2023-04-15T15:32:42;8.90;;;5.27;;
4307;SDS011;2167;53.448;9.984;2023-04-15T15:35:08;7.03;;;5.13;;
4307;SDS011;2167;53.448;9.984;2023-04-15T15:37:34;7.43;;;5.40;;
4307;SDS011;2167;53.448;9.984;2023-04-15T15:40:03;8.00;;;5.47;;
4307;SDS011;2167;53.448;9.984;2023-04-15T15:42:29;10.50;;;6.40;;
4307;SDS011;2167;53.448;9.984;2023-04-15T15:44:55;6.43;;;5.07;;
4307;SDS011;2167;53.448;9.984;2023-04-15T15:47:21;9.23;;;6.23;;
4307;SDS011;2167;53.448;9.984;2023-04-15T15:49:48;14.63;;;8.37;;
4307;SDS011;2167;53.448;9.984;2023-04-15T15:52:14;12.40;;;6.70;;
4307;SDS011;2167;53.448;9.984;2023-04-15T15:54:39;10.60;;;7.10;;
4307;SDS011;2167;53.448;9.984;2023-04-15T15:57:05;9.27;;;7.40;;
4307;SDS011;2167;53.448;9.984;2023-04-15T15:59:31;8.87;;;6.13;;
4307;SDS011;2167;53.448;9.984;2023-04-15T16:01:59;10.20;;;6.70;;
4307;SDS011;2167;53.448;9.984;2023-04-15T16:04:25;8.50;;;6.50;;
4307;SDS011;2167;53.448;9.984;2023-04-15T16:06:51;10.13;;;7.33;;
4307;SDS011;2167;53.448;9.984;2023-04-15T16:09:17;11.80;;;6.93;;
4307;SDS011;2167;53.448;9.984;2023-04-15T16:11:43;13.23;;;7.70;;
4307;SDS011;2167;53.448;9.984;2023-04-15T16:14:09;8.50;;;6.13;;
4307;SDS011;2167;53.448;9.984;2023-04-15T16:16:35;7.97;;;6.13;;
4307;SDS011;2167;53.448;9.984;2023-04-15T16:19:02;7.43;;;5.90;;
4307;SDS011;2167;53.448;9.984;2023-04-15T16:21:27;10.40;;;5.73;;
4307;SDS011;2167;53.448;9.984;2023-04-15T16:23:53;13.30;;;7.00;;
4307;SDS011;2167;53.448;9.984;2023-04-15T16:26:19;10.07;;;6.80;;
4307;SDS011;2167;53.448;9.984;2023-04-15T16:28:51;10.83;;;6.87;;
4307;SDS011;2167;53.448;9.984;2023-04-15T16:31:16;10.17;;;7.73;;
4307;SDS011;2167;53.448;9.984;2023-04-15T16:33:42;9.73;;;6.00;;
4307;SDS011;2167;53.448;9.984;2023-04-15T16:36:07;12.60;;;7.90;;
4307;SDS011;2167;53.448;9.984;2023-04-15T16:38:33;10.13;;;6.97;;
4307;SDS011;2167;53.448;9.984;2023-04-15T16:40:59;11.57;;;6.60;;
4307;SDS011;2167;53.448;9.984;2023-04-15T16:43:28;12.53;;;7.20;;
4307;SDS011;2167;53.448;9.984;2023-04-15T16:45:54;9.80;;;7.10;;
4307;SDS011;2167;53.448;9.984;2023-04-15T16:48:22;11.70;;;7.10;;
4307;SDS011;2167;53.448;9.984;2023-04-15T16:50:48;10.37;;;7.33;;
4307;SDS011;2167;53.448;9.984;2023-04-15T16:53:14;10.30;;;8.13;;
4307;SDS011;2167;53.448;9.984;2023-04-15T16:55:40;14.00;;;8.17;;
4307;SDS011;2167;53.448;9.984;2023-04-15T16:58:05;10.20;;;7.33;;
4307;SDS011;2167;53.448;9.984;2023-04-15T17:00:31;15.20;;;8.17;;
4307;SDS011;2167;53.448;9.984;2023-04-15T17:03:00;13.20;;;8.80;;
4307;SDS011;2167;53.448;9.984;2023-04-15T17:05:26;12.03;;;8.30;;
4307;SDS011;2167;53.448;9.984;2023-04-15T17:07:51;13.33;;;8.40;;
4307;SDS011;2167;53.448;9.984;2023-04-15T17:10:17;13.87;;;8.57;;
4307;SDS011;2167;53.448;9.984;2023-04-15T17:12:43;12.40;;;8.70;;
4307;SDS011;2167;53.448;9.984;2023-04-15T17:15:08;13.50;;;8.63;;
4307;SDS011;2167;53.448;9.984;2023-04-15T17:17:35;14.00;;;9.57;;
4307;SDS011;2167;53.448;9.984;2023-04-15T17:20:00;14.40;;;8.67;;
4307;SDS011;2167;53.448;9.984;2023-04-15T17:22:27;17.93;;;10.00;;
4307;SDS011;2167;53.448;9.984;2023-04-15T17:24:58;11.63;;;9.23;;
4307;SDS011;2167;53.448;9.984;2023-04-15T17:27:24;12.73;;;9.47;;
4307;SDS011;2167;53.448;9.984;2023-04-15T17:29:53;14.57;;;9.30;;
4307;SDS011;2167;53.448;9.984;2023-04-15T17:32:22;15.37;;;10.37;;
4307;SDS011;2167;53.448;9.984;2023-04-15T17:34:50;14.97;;;10.20;;
4307;SDS011;2167;53.448;9.984;2023-04-15T17:37:19;13.20;;;9.43;;
4307;SDS011;2167;53.448;9.984;2023-04-15T17:42:40;15.43;;;9.23;;
4307;SDS011;2167;53.448;9.984;2023-04-15T17:45:12;17.23;;;10.50;;
4307;SDS011;2167;53.448;9.984;2023-04-15T17:47:43;15.07;;;10.00;;
4307;SDS011;2167;53.448;9.984;2023-04-15T17:50:09;18.83;;;9.63;;
4307;SDS011;2167;53.448;9.984;2023-04-15T17:52:35;20.80;;;10.33;;
4307;SDS011;2167;53.448;9.984;2023-04-15T17:55:01;14.17;;;9.80;;
4307;SDS011;2167;53.448;9.984;2023-04-15T17:57:26;18.57;;;9.50;;
4307;SDS011;2167;53.448;9.984;2023-04-15T17:59:54;15.07;;;9.60;;
4307;SDS011;2167;53.448;9.984;2023-04-15T18:02:20;13.10;;;9.90;;
4307;SDS011;2167;53.448;9.984;2023-04-15T18:04:46;16.30;;;10.10;;
4307;SDS011;2167;53.448;9.984;2023-04-15T18:07:11;13.10;;;10.10;;
4307;SDS011;2167;53.448;9.984;2023-04-15T18:09:38;15.03;;;11.13;;
4307;SDS011;2167;53.448;9.984;2023-04-15T18:12:04;15.67;;;9.53;;
4307;SDS011;2167;53.448;9.984;2023-04-15T18:14:31;16.37;;;10.40;;
4307;SDS011;2167;53.448;9.984;2023-04-15T18:16:57;15.93;;;9.73;;
4307;SDS011;2167;53.448;9.984;2023-04-15T18:19:22;22.33;;;11.20;;
4307;SDS011;2167;53.448;9.984;2023-04-15T18:21:49;13.97;;;10.43;;
4307;SDS011;2167;53.448;9.984;2023-04-15T18:24:16;15.43;;;9.37;;
4307;SDS011;2167;53.448;9.984;2023-04-15T18:26:42;14.23;;;9.80;;
4307;SDS011;2167;53.448;9.984;2023-04-15T18:29:08;15.00;;;10.63;;